createdAt,value
2022-10-04T03:59:30.765Z,100850.34
2022-10-04T04:02:45.833Z,100850.34
2022-10-04T04:05:53.316Z,100851.81
2022-10-04T04:08:57.374Z,100852.31
2022-10-04T04:12:02.689Z,100853.38
2022-10-04T04:15:10.038Z,100841.78
2022-10-04T04:18:19.950Z,100844.25
2022-10-04T04:21:26.074Z,100846.16
2022-10-04T04:24:32.116Z,100842.47
2022-10-04T04:27:38.565Z,100847.03
2022-10-04T04:30:46.394Z,100847.50
2022-10-04T04:34:00.389Z,100855.91
2022-10-04T04:37:04.983Z,100862.84
2022-10-04T04:40:22.170Z,100870.69
2022-10-04T04:43:27.078Z,100866.41
2022-10-04T04:46:30.663Z,100874.72
2022-10-04T04:49:33.809Z,100873.81
2022-10-04T04:52:37.391Z,100860.97
2022-10-04T04:56:02.357Z,100857.41
2022-10-04T04:59:08.037Z,100869.84
2022-10-04T05:02:37.446Z,100879.47
2022-10-04T05:05:45.305Z,100882.69
2022-10-04T05:08:50.489Z,100884.75
2022-10-04T05:11:57.943Z,100899.62
2022-10-04T05:15:00.234Z,100899.88
2022-10-04T05:18:28.182Z,100892.69
2022-10-04T05:21:32.643Z,100899.62
2022-10-04T05:24:38.566Z,100902.81
2022-10-04T05:27:44.832Z,100914.44
2022-10-04T05:31:11.493Z,100922.50
2022-10-04T05:34:27.743Z,100918.97
2022-10-04T05:37:58.913Z,100922.19
2022-10-04T05:41:13.552Z,100930.03
2022-10-04T05:44:45.780Z,100931.63
2022-10-04T05:47:50.941Z,100931.63
2022-10-04T05:50:52.974Z,100930.50
2022-10-04T05:53:59.631Z,100935.88
2022-10-04T05:57:25.466Z,100935.09
2022-10-04T06:00:42.051Z,100943.97
2022-10-04T06:04:12.551Z,100946.09
2022-10-04T06:07:30.378Z,100947.75
2022-10-04T06:11:03.713Z,100950.38
2022-10-04T06:14:24.073Z,100953.91
2022-10-04T06:17:48.409Z,100953.03
2022-10-04T06:21:12.010Z,100958.91
2022-10-04T06:24:26.162Z,100960.78
2022-10-04T06:27:46.581Z,100960.78
2022-10-04T06:31:30.377Z,100968.53
2022-10-04T06:34:45.226Z,100975.84
2022-10-04T06:38:15.367Z,100977.09
2022-10-04T06:41:48.442Z,100984.59
2022-10-04T06:45:09.406Z,100978.94
2022-10-04T06:48:43.119Z,100975.69
2022-10-04T06:52:06.782Z,100982.69
2022-10-04T06:55:27.270Z,100976.69
2022-10-04T06:59:00.757Z,100975.22
2022-10-04T07:02:15.089Z,100974.12
2022-10-04T07:05:30.694Z,100970.94
2022-10-04T07:08:47.907Z,100986.78
2022-10-04T07:11:58.631Z,100975.00
2022-10-04T07:15:08.262Z,100987.13
2022-10-04T07:18:18.401Z,100992.47
2022-10-04T07:21:22.252Z,100997.88
2022-10-04T07:24:33.837Z,101002.28
2022-10-04T07:27:41.709Z,100998.53
2022-10-04T07:30:56.309Z,101002.47
2022-10-04T07:34:03.757Z,101002.72
2022-10-04T07:37:12.782Z,100998.88
2022-10-04T07:40:25.388Z,101007.34
2022-10-04T07:43:33.744Z,101004.94
2022-10-04T07:46:44.468Z,101003.81
2022-10-04T07:49:50.301Z,101008.31
2022-10-04T07:52:58.185Z,100997.72
2022-10-04T07:56:25.513Z,100999.87
2022-10-04T07:59:57.629Z,100996.34
2022-10-04T08:03:42.188Z,100991.19
2022-10-04T08:06:59.331Z,100990.81
2022-10-04T08:10:25.748Z,101008.38
2022-10-04T08:14:05.795Z,101004.00
2022-10-04T08:17:32.191Z,101016.84
2022-10-04T08:20:49.550Z,101016.84
2022-10-04T08:24:06.603Z,101021.34
2022-10-04T08:27:30.417Z,101025.09
2022-10-04T08:30:52.500Z,101028.00
2022-10-04T08:34:08.575Z,101035.22
2022-10-04T08:37:44.666Z,101042.38
2022-10-04T08:40:50.041Z,101033.16
2022-10-04T08:44:23.135Z,101027.97
2022-10-04T08:47:44.290Z,101042.62
2022-10-04T08:51:06.258Z,101039.16
2022-10-04T08:54:14.930Z,101034.84
2022-10-04T08:57:35.224Z,101045.56
2022-10-04T09:00:56.701Z,101060.84
2022-10-04T09:04:23.812Z,101061.31
2022-10-04T09:07:58.055Z,101048.03
2022-10-04T09:11:29.947Z,101039.19
2022-10-04T09:14:32.236Z,101047.50
2022-10-04T09:17:50.859Z,101039.63
2022-10-04T09:21:11.335Z,101025.84
2022-10-04T09:24:49.566Z,101007.84
2022-10-04T09:28:13.158Z,101030.47
2022-10-04T09:31:37.344Z,101034.69
2022-10-04T09:34:39.683Z,101035.19
2022-10-04T09:38:20.022Z,101036.28
2022-10-04T09:41:44.222Z,101042.69
2022-10-04T09:44:57.101Z,101056.00
2022-10-04T09:48:16.913Z,101052.91
2022-10-04T09:51:56.419Z,101062.16
2022-10-04T09:55:07.883Z,101063.41
2022-10-04T09:58:19.166Z,101063.72
2022-10-04T10:01:42.929Z,101071.22
2022-10-04T10:05:04.205Z,101071.03
2022-10-04T10:08:18.013Z,101085.38
2022-10-04T10:12:26.439Z,101080.78
2022-10-04T10:16:03.664Z,101086.28
2022-10-04T10:19:32.721Z,101080.47
2022-10-04T10:22:59.933Z,101084.41
2022-10-04T10:26:23.967Z,101084.72
2022-10-04T10:29:35.805Z,101087.31
2022-10-04T10:32:59.750Z,101085.63
2022-10-04T10:36:13.888Z,101088.00
2022-10-04T10:39:16.098Z,101087.09
2022-10-04T10:42:37.594Z,101078.25
2022-10-04T10:46:27.130Z,101077.84
2022-10-04T10:50:08.966Z,101081.25
2022-10-04T10:53:20.413Z,101075.53
2022-10-04T10:56:52.600Z,101079.56
2022-10-04T11:00:05.380Z,101082.06
2022-10-04T11:03:43.362Z,101075.53
2022-10-04T11:07:00.760Z,101078.81
2022-10-04T11:10:21.485Z,101082.66
2022-10-04T11:13:59.144Z,101069.84
2022-10-04T11:17:10.411Z,101071.97
2022-10-04T11:20:28.040Z,101071.97
2022-10-04T11:23:59.574Z,101069.47
2022-10-04T11:27:15.871Z,101067.94
2022-10-04T11:30:39.960Z,101087.00
2022-10-04T11:33:55.511Z,101077.78
2022-10-04T11:37:21.138Z,101072.75
2022-10-04T11:40:23.617Z,101074.37
2022-10-04T11:43:38.066Z,101073.56
2022-10-04T11:46:44.186Z,101082.78
2022-10-04T11:50:15.719Z,101082.69
2022-10-04T11:53:54.681Z,101077.75
2022-10-04T11:57:11.683Z,101073.38
2022-10-04T12:00:20.603Z,101072.66
2022-10-04T12:03:55.111Z,101076.56
2022-10-04T12:07:08.240Z,101065.72
2022-10-04T12:10:24.506Z,101069.53
2022-10-04T12:13:32.473Z,101071.75
2022-10-04T12:16:56.608Z,101069.38
2022-10-04T12:20:28.664Z,101077.47
2022-10-04T12:23:56.055Z,101082.28
2022-10-04T12:27:14.605Z,101071.47
2022-10-04T12:30:22.534Z,101079.19
2022-10-04T12:33:37.243Z,101074.44
2022-10-04T12:37:00.337Z,101073.66
2022-10-04T12:40:16.973Z,101086.47
2022-10-04T12:43:32.797Z,101079.28
2022-10-04T12:47:04.046Z,101080.19
2022-10-04T12:50:19.670Z,101079.88
2022-10-04T12:53:55.575Z,101081.47
2022-10-04T12:57:20.125Z,101077.69
2022-10-04T13:00:24.939Z,101085.69
2022-10-04T13:03:41.929Z,101076.06
2022-10-04T13:06:53.257Z,101091.37
2022-10-04T13:10:24.161Z,101074.25
2022-10-04T13:13:41.227Z,101082.56
2022-10-04T13:17:34.065Z,101076.25
2022-10-04T13:20:56.216Z,101077.66
2022-10-04T13:24:07.180Z,101077.25
2022-10-04T13:27:19.306Z,101082.97
2022-10-04T13:30:27.945Z,101075.66
2022-10-04T13:33:42.915Z,101079.06
2022-10-04T13:36:51.900Z,101082.09
2022-10-04T13:40:32.598Z,101081.78
2022-10-04T13:43:37.554Z,101084.19
2022-10-04T13:47:10.745Z,101086.06
2022-10-04T13:50:32.261Z,101091.81
2022-10-04T13:54:04.983Z,101086.38
2022-10-04T13:57:16.883Z,101095.31
2022-10-04T14:00:58.611Z,101082.47
2022-10-04T14:04:14.366Z,101078.75
2022-10-04T14:07:44.570Z,101091.19
2022-10-04T14:11:21.923Z,101100.38
2022-10-04T14:14:52.158Z,101094.47
2022-10-04T14:18:10.369Z,101096.69
2022-10-04T14:21:18.756Z,101109.34
2022-10-04T14:24:40.538Z,101107.13
2022-10-04T14:27:54.673Z,101103.31
2022-10-04T14:31:42.193Z,101099.50
2022-10-04T14:34:59.202Z,101114.84
2022-10-04T14:38:26.625Z,101101.31
2022-10-04T14:42:02.706Z,101108.91
2022-10-04T14:45:32.817Z,101120.34
2022-10-04T14:48:58.897Z,101116.56
2022-10-04T14:52:18.237Z,101115.94
2022-10-04T14:55:38.187Z,101127.56
2022-10-04T14:59:08.053Z,101129.47
2022-10-04T15:02:33.447Z,101137.69
2022-10-04T15:05:44.035Z,101139.59
2022-10-04T15:08:45.979Z,101139.78
2022-10-04T15:12:36.362Z,101139.41
2022-10-04T15:16:13.897Z,101138.41
2022-10-04T15:19:22.548Z,101135.19
2022-10-04T15:22:41.349Z,101137.50
2022-10-04T15:25:48.992Z,101141.91
2022-10-04T15:28:53.783Z,101142.81
2022-10-04T15:32:20.404Z,101152.84
2022-10-04T15:35:32.957Z,101150.34
2022-10-04T15:39:04.843Z,101154.56
2022-10-04T15:42:13.073Z,101153.25
2022-10-04T15:45:18.042Z,101153.03
